createdAt,value
2022-08-31T00:00:09.311Z,22.94
2022-08-31T00:02:54.644Z,22.92
2022-08-31T00:05:21.817Z,22.91
2022-08-31T00:07:48.433Z,22.91
2022-08-31T00:10:15.747Z,22.87
2022-08-31T00:12:43.795Z,22.83
2022-08-31T00:15:13.450Z,22.82
2022-08-31T00:17:40.844Z,22.79
2022-08-31T00:20:09.797Z,22.76
2022-08-31T00:22:57.053Z,22.72
2022-08-31T00:25:24.113Z,22.70
2022-08-31T00:27:50.914Z,22.67
2022-08-31T00:30:17.490Z,22.62
2022-08-31T00:32:44.045Z,22.55
2022-08-31T00:35:10.615Z,22.47
2022-08-31T00:37:37.358Z,22.40
2022-08-31T00:40:04.856Z,22.29
2022-08-31T00:42:31.503Z,22.23
2022-08-31T00:44:58.148Z,22.17
2022-08-31T00:47:24.738Z,22.10
2022-08-31T00:49:52.782Z,22.08
2022-08-31T00:52:33.316Z,22.01
2022-08-31T00:55:17.905Z,21.93
2022-08-31T00:57:48.196Z,21.89
2022-08-31T01:00:18.910Z,21.80
2022-08-31T01:02:45.795Z,21.76
2022-08-31T01:05:13.598Z,21.69
2022-08-31T01:07:41.869Z,21.64
2022-08-31T01:10:09.929Z,21.59
2022-08-31T01:12:37.465Z,21.56
2022-08-31T01:15:25.791Z,21.48
2022-08-31T01:17:55.328Z,21.44
2022-08-31T01:20:49.122Z,21.37
2022-08-31T01:23:21.444Z,21.35
2022-08-31T01:25:49.166Z,21.33
2022-08-31T01:28:16.023Z,21.30
2022-08-31T01:30:44.313Z,21.29
2022-08-31T01:33:13.273Z,21.25
2022-08-31T01:35:44.736Z,21.20
2022-08-31T01:38:13.292Z,21.17
2022-08-31T01:40:49.362Z,21.14
2022-08-31T01:43:16.551Z,21.15
2022-08-31T01:45:43.349Z,21.15
2022-08-31T01:48:10.431Z,21.12
2022-08-31T01:50:37.098Z,21.09
2022-08-31T01:53:04.005Z,21.04
2022-08-31T01:55:30.876Z,20.98
2022-08-31T01:57:58.898Z,20.95
2022-08-31T02:00:25.907Z,20.91
2022-08-31T02:02:52.502Z,20.85
2022-08-31T02:05:19.356Z,20.81
2022-08-31T02:07:46.074Z,20.76
2022-08-31T02:10:12.699Z,20.71
2022-08-31T02:12:39.350Z,20.66
2022-08-31T02:15:06.726Z,20.63
2022-08-31T02:17:33.281Z,20.58
2022-08-31T02:19:59.863Z,20.53
2022-08-31T02:22:26.467Z,20.52
2022-08-31T02:24:53.020Z,20.48
2022-08-31T02:27:19.647Z,20.44
2022-08-31T02:29:46.268Z,20.44
2022-08-31T02:32:20.330Z,20.46
2022-08-31T02:34:48.541Z,20.46
2022-08-31T02:37:15.535Z,20.47
2022-08-31T02:39:44.287Z,20.47
2022-08-31T02:42:11.064Z,20.48
2022-08-31T02:44:37.606Z,20.49
2022-08-31T02:47:04.357Z,20.52
2022-08-31T02:49:33.045Z,20.52
2022-08-31T02:51:59.677Z,20.53
2022-08-31T02:54:26.213Z,20.54
2022-08-31T02:56:52.969Z,20.53
2022-08-31T02:59:20.763Z,20.51
2022-08-31T03:01:48.306Z,20.49
2022-08-31T03:04:15.017Z,20.51
2022-08-31T03:06:41.870Z,20.50
2022-08-31T03:09:08.407Z,20.53
2022-08-31T03:11:34.984Z,20.54
2022-08-31T03:14:01.564Z,20.56
2022-08-31T03:16:28.137Z,20.59
2022-08-31T03:18:54.798Z,20.59
2022-08-31T03:21:21.402Z,20.58
2022-08-31T03:23:48.003Z,20.58
2022-08-31T03:26:14.680Z,20.54
2022-08-31T03:28:41.296Z,20.52
2022-08-31T03:31:09.899Z,20.53
2022-08-31T03:33:36.692Z,20.54
2022-08-31T03:36:05.779Z,20.54
2022-08-31T03:38:32.507Z,20.51
2022-08-31T03:41:01.313Z,20.50
2022-08-31T03:43:27.958Z,20.47
2022-08-31T03:45:54.999Z,20.47
2022-08-31T03:48:21.635Z,20.47
2022-08-31T03:50:48.202Z,20.51
2022-08-31T03:53:15.101Z,20.54
2022-08-31T03:55:43.941Z,20.58
2022-08-31T03:58:12.027Z,20.61
2022-08-31T04:00:39.597Z,20.63
2022-08-31T04:03:06.340Z,20.66
2022-08-31T04:05:36.650Z,20.68
2022-08-31T04:08:03.458Z,20.70
2022-08-31T04:10:30.055Z,20.73
2022-08-31T04:12:56.614Z,20.76
2022-08-31T04:15:23.321Z,20.78
2022-08-31T04:17:49.933Z,20.80
2022-08-31T04:20:29.489Z,20.80
2022-08-31T04:22:56.740Z,20.76
2022-08-31T04:25:23.295Z,20.72
2022-08-31T04:27:50.383Z,20.70
2022-08-31T04:30:18.143Z,20.68
2022-08-31T04:32:44.720Z,20.65
2022-08-31T04:35:11.433Z,20.61
2022-08-31T04:37:40.488Z,20.57
2022-08-31T04:40:18.935Z,20.46
2022-08-31T04:42:48.664Z,20.37
2022-08-31T04:45:16.973Z,20.37
2022-08-31T04:47:43.889Z,20.35
2022-08-31T04:50:12.617Z,20.34
2022-08-31T04:52:39.296Z,20.34
2022-08-31T04:55:07.297Z,20.45
2022-08-31T04:57:35.711Z,20.86
2022-08-31T05:00:04.579Z,21.25
2022-08-31T05:02:33.377Z,21.59
2022-08-31T05:05:00.566Z,21.87
2022-08-31T05:07:27.177Z,22.11
2022-08-31T05:09:53.914Z,22.27
2022-08-31T05:12:20.553Z,22.37
2022-08-31T05:14:47.922Z,22.45
2022-08-31T05:17:16.656Z,22.59
2022-08-31T05:19:43.942Z,22.68
2022-08-31T05:22:11.194Z,22.78
2022-08-31T05:24:38.936Z,22.87
2022-08-31T05:27:06.499Z,22.90
2022-08-31T05:29:33.239Z,22.92
2022-08-31T05:31:59.950Z,22.94
2022-08-31T05:34:26.952Z,23.02
2022-08-31T05:36:55.782Z,23.11
2022-08-31T05:39:23.953Z,23.15
2022-08-31T05:41:50.528Z,23.15
2022-08-31T05:44:18.093Z,23.08
2022-08-31T05:46:45.027Z,22.78
2022-08-31T05:49:21.279Z,22.68
2022-08-31T05:51:47.813Z,22.37
2022-08-31T05:54:15.986Z,22.07
2022-08-31T05:56:42.905Z,22.26
2022-08-31T05:59:09.864Z,22.58
2022-08-31T06:01:39.643Z,22.89
2022-08-31T06:04:08.343Z,23.16
2022-08-31T06:06:35.561Z,23.33
2022-08-31T06:09:02.130Z,23.44
2022-08-31T06:11:31.000Z,23.56
2022-08-31T06:14:00.430Z,23.66
2022-08-31T06:16:28.052Z,23.72
2022-08-31T06:18:55.806Z,23.78
2022-08-31T06:21:36.435Z,23.82
2022-08-31T06:24:05.475Z,23.89
2022-08-31T06:26:34.835Z,23.93
2022-08-31T06:29:04.571Z,23.96
2022-08-31T06:31:36.334Z,23.92
2022-08-31T06:34:03.213Z,23.58
2022-08-31T06:36:31.493Z,23.29
2022-08-31T06:38:59.826Z,23.28
2022-08-31T06:41:35.808Z,23.47
2022-08-31T06:44:05.906Z,23.58
2022-08-31T06:46:34.477Z,23.81
2022-08-31T06:49:02.016Z,24.01
2022-08-31T06:51:29.078Z,24.04
2022-08-31T06:53:59.357Z,23.92
2022-08-31T06:56:35.654Z,23.90
2022-08-31T06:59:02.969Z,23.95
2022-08-31T07:01:35.311Z,23.98
2022-08-31T07:04:07.568Z,23.98
2022-08-31T07:06:41.313Z,23.96
2022-08-31T07:09:11.047Z,24.08
2022-08-31T07:11:44.725Z,24.17
2022-08-31T07:14:14.535Z,24.15
2022-08-31T07:16:42.182Z,24.17
2022-08-31T07:19:09.325Z,24.23
2022-08-31T07:21:41.835Z,24.32
2022-08-31T07:24:10.277Z,24.42
2022-08-31T07:26:47.639Z,24.43
2022-08-31T07:29:17.432Z,24.38
2022-08-31T07:31:46.569Z,24.41
2022-08-31T07:34:17.271Z,24.37
2022-08-31T07:37:02.405Z,24.42
2022-08-31T07:39:48.983Z,24.48
2022-08-31T07:42:22.555Z,24.52
2022-08-31T07:44:53.452Z,24.57
2022-08-31T07:47:22.687Z,24.44
2022-08-31T07:49:52.769Z,24.48
2022-08-31T07:52:23.822Z,24.52
2022-08-31T07:54:52.574Z,24.43
2022-08-31T07:57:20.193Z,24.21
2022-08-31T07:59:50.061Z,23.88
2022-08-31T08:02:17.664Z,23.83
2022-08-31T08:04:45.125Z,23.60
2022-08-31T08:07:12.811Z,23.47
2022-08-31T08:09:39.436Z,23.39
2022-08-31T08:12:06.492Z,23.41
2022-08-31T08:14:36.150Z,23.59
2022-08-31T08:17:05.544Z,23.72
2022-08-31T08:19:33.796Z,23.88
2022-08-31T08:22:04.330Z,23.99
2022-08-31T08:24:32.675Z,24.06
2022-08-31T08:27:00.192Z,24.10
2022-08-31T08:29:29.920Z,24.01
2022-08-31T08:32:00.562Z,24.02
2022-08-31T08:34:31.693Z,23.97
2022-08-31T08:36:59.696Z,23.80
2022-08-31T08:39:27.181Z,23.74
2022-08-31T08:41:57.814Z,23.74
2022-08-31T08:44:28.601Z,23.78
2022-08-31T08:46:58.627Z,23.82
2022-08-31T08:49:28.935Z,23.79
2022-08-31T08:52:07.333Z,23.75
2022-08-31T08:54:39.494Z,23.39
2022-08-31T08:57:15.658Z,23.04
2022-08-31T08:59:46.999Z,22.82
2022-08-31T09:02:24.112Z,22.59
2022-08-31T09:05:18.720Z,22.63
2022-08-31T09:08:00.643Z,22.82
2022-08-31T09:10:42.523Z,23.02
2022-08-31T09:13:21.173Z,23.19
2022-08-31T09:16:12.064Z,23.25
2022-08-31T09:18:50.114Z,23.14
2022-08-31T09:21:30.979Z,23.09
2022-08-31T09:24:02.633Z,22.81
2022-08-31T09:26:50.897Z,22.47
2022-08-31T09:29:24.657Z,22.20
2022-08-31T09:32:05.952Z,22.22
2022-08-31T09:34:37.397Z,22.06
2022-08-31T09:37:24.261Z,21.87
2022-08-31T09:39:53.044Z,22.20
2022-08-31T09:42:29.192Z,22.37
2022-08-31T09:45:00.261Z,22.58
2022-08-31T09:47:43.216Z,22.69
2022-08-31T09:50:12.010Z,22.68
2022-08-31T09:52:58.811Z,22.62
2022-08-31T09:55:28.172Z,22.90
2022-08-31T09:57:57.697Z,23.16
2022-08-31T10:00:45.100Z,23.29
2022-08-31T10:03:19.180Z,23.37
2022-08-31T10:05:47.343Z,23.17
2022-08-31T10:08:28.228Z,23.03
2022-08-31T10:11:01.964Z,22.88
2022-08-31T10:13:39.198Z,23.00
2022-08-31T10:16:26.276Z,23.16
2022-08-31T10:18:55.627Z,23.03
2022-08-31T10:21:35.491Z,22.96
2022-08-31T10:24:33.716Z,23.15
2022-08-31T10:27:08.280Z,23.40
2022-08-31T10:29:44.144Z,23.08
2022-08-31T10:32:23.849Z,22.57
2022-08-31T10:35:05.022Z,22.26
2022-08-31T10:37:38.679Z,22.21
2022-08-31T10:40:14.062Z,22.40
2022-08-31T10:43:01.712Z,22.75
2022-08-31T10:45:31.570Z,23.07
2022-08-31T10:47:59.887Z,23.35
2022-08-31T10:50:39.243Z,23.62
2022-08-31T10:53:32.619Z,23.69
2022-08-31T10:56:12.807Z,23.86
2022-08-31T10:59:00.634Z,23.98
2022-08-31T11:01:35.408Z,23.85
2022-08-31T11:04:02.189Z,23.84
2022-08-31T11:06:44.156Z,23.81
2022-08-31T11:09:22.400Z,23.98
2022-08-31T11:12:07.348Z,24.08
2022-08-31T11:15:01.997Z,24.24
2022-08-31T11:17:52.988Z,24.27
2022-08-31T11:20:41.719Z,24.37
2022-08-31T11:23:35.874Z,24.20
2022-08-31T11:26:16.842Z,23.66
2022-08-31T11:28:49.570Z,23.34
2022-08-31T11:31:24.075Z,23.17
2022-08-31T11:34:15.515Z,23.36
2022-08-31T11:37:01.499Z,23.67
2022-08-31T11:39:31.093Z,23.99
2022-08-31T11:41:59.296Z,24.03
2022-08-31T11:44:36.937Z,24.09
2022-08-31T11:47:05.786Z,24.32
2022-08-31T11:49:43.828Z,24.50
2022-08-31T11:52:29.804Z,24.34
2022-08-31T11:54:59.024Z,24.17
2022-08-31T11:57:36.890Z,24.20
2022-08-31T12:00:19.232Z,24.16
2022-08-31T12:03:01.563Z,24.36
2022-08-31T12:05:50.982Z,24.63
2022-08-31T12:08:18.163Z,24.85
2022-08-31T12:11:05.451Z,24.79
2022-08-31T12:13:49.941Z,24.62
2022-08-31T12:16:21.828Z,24.18
2022-08-31T12:19:07.272Z,24.06
2022-08-31T12:22:18.466Z,24.28
2022-08-31T12:25:11.583Z,24.17
2022-08-31T12:27:47.379Z,23.69
2022-08-31T12:30:22.550Z,23.44
2022-08-31T12:32:59.075Z,23.35
2022-08-31T12:35:28.619Z,23.29
2022-08-31T12:38:02.818Z,23.24
2022-08-31T12:40:35.783Z,23.06
2022-08-31T12:43:20.107Z,23.08
2022-08-31T12:46:02.355Z,23.28
2022-08-31T12:48:51.687Z,23.61
2022-08-31T12:51:28.083Z,23.92
2022-08-31T12:54:16.310Z,23.92
2022-08-31T12:57:07.613Z,23.87
2022-08-31T12:59:57.492Z,23.75
2022-08-31T13:02:27.095Z,23.85
2022-08-31T13:04:54.267Z,23.98
2022-08-31T13:07:23.971Z,24.09
2022-08-31T13:10:15.625Z,24.42
2022-08-31T13:12:54.004Z,24.84
2022-08-31T13:15:42.597Z,25.24
2022-08-31T13:18:16.105Z,25.65
2022-08-31T13:20:44.229Z,25.96
2022-08-31T13:23:15.205Z,26.26
2022-08-31T13:25:42.195Z,26.57
2022-08-31T13:28:13.888Z,26.72
2022-08-31T13:30:41.609Z,26.95
2022-08-31T13:33:27.108Z,27.25
2022-08-31T13:36:30.290Z,27.40
2022-08-31T13:38:57.130Z,27.53
2022-08-31T13:41:30.071Z,27.34
2022-08-31T13:44:01.367Z,27.29
2022-08-31T13:46:42.433Z,27.38
2022-08-31T13:49:26.066Z,27.46
2022-08-31T13:51:52.914Z,27.38
2022-08-31T13:54:33.574Z,27.58
2022-08-31T13:57:11.071Z,27.82
2022-08-31T13:59:39.698Z,28.04
2022-08-31T14:02:36.737Z,28.41
2022-08-31T14:05:07.911Z,29.11
2022-08-31T14:07:43.479Z,29.72
2022-08-31T14:10:17.478Z,30.17
2022-08-31T14:12:54.690Z,30.16
2022-08-31T14:15:37.832Z,30.05
2022-08-31T14:18:24.394Z,29.96
2022-08-31T14:21:20.513Z,29.70
2022-08-31T14:24:02.033Z,29.31
2022-08-31T14:26:34.778Z,29.00
2022-08-31T14:29:10.915Z,29.16
2022-08-31T14:31:52.369Z,29.75
2022-08-31T14:34:24.395Z,30.32
2022-08-31T14:36:53.765Z,30.91
2022-08-31T14:39:22.250Z,31.33
2022-08-31T14:41:49.276Z,31.72
2022-08-31T14:44:20.094Z,32.12
2022-08-31T14:46:46.752Z,32.24
2022-08-31T14:49:13.555Z,32.29
2022-08-31T14:51:41.294Z,32.28
2022-08-31T14:54:09.043Z,32.09
2022-08-31T14:56:46.815Z,32.31
2022-08-31T14:59:16.280Z,32.55
2022-08-31T15:01:46.848Z,32.76
2022-08-31T15:04:16.131Z,33.02
2022-08-31T15:06:47.571Z,33.15
2022-08-31T15:09:14.088Z,33.03
2022-08-31T15:11:43.683Z,33.21
2022-08-31T15:14:12.530Z,33.44
2022-08-31T15:16:44.248Z,33.55
2022-08-31T15:19:14.877Z,33.70
2022-08-31T15:21:51.795Z,33.42
2022-08-31T15:24:21.885Z,32.61
2022-08-31T15:26:48.989Z,31.91
2022-08-31T15:29:16.555Z,31.41
2022-08-31T15:31:49.754Z,31.02
2022-08-31T15:34:31.291Z,30.74
2022-08-31T15:37:03.926Z,30.45
2022-08-31T15:39:36.624Z,30.29
2022-08-31T15:42:09.353Z,30.07
2022-08-31T15:44:40.989Z,29.75
2022-08-31T15:47:27.233Z,29.46
2022-08-31T15:49:55.698Z,30.05
2022-08-31T15:52:27.706Z,30.77
2022-08-31T15:54:55.058Z,31.26
2022-08-31T15:57:23.467Z,31.62
2022-08-31T15:59:50.627Z,32.19
2022-08-31T16:02:20.838Z,32.62
2022-08-31T16:04:50.561Z,32.54
2022-08-31T16:07:17.836Z,31.94
2022-08-31T16:09:47.455Z,31.50
2022-08-31T16:12:16.005Z,31.72
2022-08-31T16:14:46.230Z,32.04
2022-08-31T16:17:17.129Z,32.32
2022-08-31T16:19:43.733Z,32.04
2022-08-31T16:22:10.522Z,31.58
2022-08-31T16:24:37.753Z,31.45
2022-08-31T16:27:07.953Z,31.78
2022-08-31T16:29:36.299Z,32.10
2022-08-31T16:32:04.277Z,32.28
2022-08-31T16:34:31.557Z,32.17
2022-08-31T16:36:59.851Z,31.55
2022-08-31T16:39:28.316Z,30.91
2022-08-31T16:41:55.341Z,30.48
2022-08-31T16:44:21.891Z,30.13
2022-08-31T16:46:49.024Z,29.77
2022-08-31T16:49:34.095Z,29.45
2022-08-31T16:52:05.739Z,29.13
2022-08-31T16:54:32.928Z,28.78
2022-08-31T16:57:00.365Z,28.59
2022-08-31T16:59:29.132Z,28.40
2022-08-31T17:01:55.950Z,28.18
2022-08-31T17:04:50.604Z,27.99
2022-08-31T17:07:14.798Z,27.76
2022-08-31T17:09:42.538Z,27.54
2022-08-31T17:12:13.430Z,27.38
2022-08-31T17:14:46.999Z,27.24
2022-08-31T17:17:16.908Z,27.15
2022-08-31T17:19:44.913Z,27.04
2022-08-31T17:22:21.502Z,26.89
2022-08-31T17:24:50.586Z,26.75
2022-08-31T17:27:21.061Z,26.60
2022-08-31T17:29:51.797Z,26.41
2022-08-31T17:32:23.978Z,26.27
2022-08-31T17:34:51.967Z,26.19
2022-08-31T17:37:26.871Z,26.09
2022-08-31T17:39:53.974Z,26.04
2022-08-31T17:42:22.812Z,26.03
2022-08-31T17:44:53.071Z,25.97
2022-08-31T17:47:21.886Z,25.90
2022-08-31T17:49:50.806Z,25.80
2022-08-31T17:52:20.712Z,25.68
2022-08-31T17:54:48.491Z,25.58
2022-08-31T17:57:16.802Z,25.56
2022-08-31T17:59:48.910Z,25.45
2022-08-31T18:02:35.013Z,25.25
2022-08-31T18:05:03.333Z,25.19
2022-08-31T18:07:36.769Z,25.14
2022-08-31T18:10:04.770Z,25.12
2022-08-31T18:12:31.467Z,25.04
2022-08-31T18:14:58.260Z,24.94
2022-08-31T18:17:26.540Z,24.80
2022-08-31T18:19:54.678Z,24.65
2022-08-31T18:22:21.651Z,24.50
2022-08-31T18:24:48.339Z,24.36
2022-08-31T18:27:15.375Z,24.22
2022-08-31T18:29:44.236Z,24.12
2022-08-31T18:32:11.564Z,24.01
2022-08-31T18:34:41.014Z,23.90
2022-08-31T18:37:09.846Z,23.76
2022-08-31T18:39:59.618Z,23.64
2022-08-31T18:42:46.065Z,23.53
2022-08-31T18:45:15.437Z,23.41
2022-08-31T18:47:42.115Z,23.33
2022-08-31T18:50:09.104Z,23.28
2022-08-31T18:52:39.231Z,23.19
2022-08-31T18:55:06.547Z,23.14
2022-08-31T18:57:33.329Z,23.07
2022-08-31T19:00:03.259Z,23.02
2022-08-31T19:02:30.121Z,22.88
2022-08-31T19:04:57.420Z,22.81
2022-08-31T19:07:24.229Z,22.70
2022-08-31T19:09:52.140Z,22.62
2022-08-31T19:12:19.555Z,22.59
2022-08-31T19:14:51.907Z,22.56
2022-08-31T19:17:19.174Z,22.50
2022-08-31T19:19:48.677Z,22.44
2022-08-31T19:22:16.522Z,22.40
2022-08-31T19:24:43.071Z,22.36
2022-08-31T19:27:10.332Z,22.32
2022-08-31T19:29:37.816Z,22.24
2022-08-31T19:32:05.899Z,22.12
2022-08-31T19:34:36.317Z,22.08
2022-08-31T19:37:05.980Z,21.97
2022-08-31T19:39:37.280Z,21.94
2022-08-31T19:42:07.990Z,21.94
2022-08-31T19:47:25.521Z,21.88
2022-08-31T19:49:52.901Z,21.83
2022-08-31T19:52:20.167Z,21.73
2022-08-31T19:54:48.491Z,21.67
2022-08-31T19:57:16.372Z,21.63
2022-08-31T19:59:42.974Z,21.56
2022-08-31T20:02:09.730Z,21.55
2022-08-31T20:04:36.744Z,21.55
2022-08-31T20:07:06.396Z,21.51
2022-08-31T20:09:34.412Z,21.47
2022-08-31T20:12:02.074Z,21.42
2022-08-31T20:14:28.874Z,21.38
2022-08-31T20:16:55.452Z,21.32
2022-08-31T20:19:25.136Z,21.24
2022-08-31T20:21:54.272Z,21.16
2022-08-31T20:24:25.788Z,21.12
2022-08-31T20:26:55.566Z,21.13
2022-08-31T20:29:23.614Z,21.15
2022-08-31T20:31:51.897Z,21.16
2022-08-31T20:34:22.058Z,21.19
2022-08-31T20:36:52.380Z,21.22
2022-08-31T20:39:20.001Z,21.22
2022-08-31T20:41:49.938Z,21.20
2022-08-31T20:44:36.762Z,21.15
2022-08-31T20:47:27.620Z,21.14
2022-08-31T20:49:57.015Z,21.14
2022-08-31T20:52:26.147Z,21.16
2022-08-31T20:55:01.437Z,21.17
2022-08-31T20:57:30.307Z,21.17
2022-08-31T20:59:56.997Z,21.17
2022-08-31T21:02:23.666Z,21.17
2022-08-31T21:04:50.389Z,21.16
2022-08-31T21:07:19.060Z,21.16
2022-08-31T21:09:46.623Z,21.19
2022-08-31T21:12:18.062Z,21.20
2022-08-31T21:14:46.097Z,21.19
2022-08-31T21:17:14.295Z,21.17
2022-08-31T21:19:41.927Z,21.17
2022-08-31T21:22:12.089Z,21.17
2022-08-31T21:24:41.885Z,21.16
2022-08-31T21:27:14.686Z,21.14
2022-08-31T21:29:43.531Z,21.11
2022-08-31T21:32:10.663Z,21.07
2022-08-31T21:34:38.292Z,21.03
2022-08-31T21:37:05.700Z,21.03
2022-08-31T21:39:32.496Z,20.98
2022-08-31T21:41:59.710Z,20.97
2022-08-31T21:44:27.116Z,20.96
2022-08-31T21:46:54.009Z,20.92
2022-08-31T21:49:20.998Z,20.89
2022-08-31T21:51:49.780Z,20.83
2022-08-31T21:54:19.292Z,20.76
2022-08-31T21:56:51.525Z,20.71
2022-08-31T21:59:20.833Z,20.66
2022-08-31T22:01:48.674Z,20.62
2022-08-31T22:04:16.300Z,20.58
2022-08-31T22:06:43.200Z,20.51
2022-08-31T22:09:12.992Z,20.48
2022-08-31T22:11:45.630Z,20.44
2022-08-31T22:14:16.391Z,20.43
2022-08-31T22:16:46.589Z,20.39
2022-08-31T22:19:15.545Z,20.33
2022-08-31T22:21:44.618Z,20.29
2022-08-31T22:24:15.617Z,20.22
2022-08-31T22:26:56.092Z,20.17
2022-08-31T22:29:27.826Z,20.09
2022-08-31T22:31:57.843Z,20.03
2022-08-31T22:34:25.629Z,20.03
2022-08-31T22:36:54.194Z,20.00
2022-08-31T22:39:23.680Z,20.02
2022-08-31T22:41:51.421Z,20.03
2022-08-31T22:44:20.696Z,20.03
2022-08-31T22:46:48.247Z,20.03
2022-08-31T22:49:15.465Z,19.98
2022-08-31T22:51:47.546Z,19.93
2022-08-31T22:54:15.446Z,19.81
2022-08-31T22:56:42.488Z,19.83
2022-08-31T22:59:15.784Z,19.80
2022-08-31T23:01:55.019Z,19.72
2022-08-31T23:04:25.021Z,19.66
2022-08-31T23:06:52.906Z,19.62
2022-08-31T23:09:21.910Z,19.58
2022-08-31T23:11:51.739Z,19.55
2022-08-31T23:14:21.043Z,19.50
2022-08-31T23:16:57.203Z,19.44
2022-08-31T23:19:28.454Z,19.36
2022-08-31T23:21:57.604Z,19.36
2022-08-31T23:24:31.371Z,19.34
2022-08-31T23:27:03.855Z,19.33
2022-08-31T23:29:34.568Z,19.32
2022-08-31T23:32:01.345Z,19.29
2022-08-31T23:34:27.917Z,19.26
2022-08-31T23:36:55.748Z,19.25
2022-08-31T23:39:23.852Z,19.23
2022-08-31T23:41:51.151Z,19.22
2022-08-31T23:44:21.004Z,19.18
2022-08-31T23:46:48.315Z,19.15
2022-08-31T23:49:18.008Z,19.11
2022-08-31T23:51:45.254Z,19.06
2022-08-31T23:54:12.621Z,19.03
2022-08-31T23:56:41.763Z,18.98
2022-08-31T23:59:11.882Z,18.95
